createdAt,value
2023-05-15T00:02:39.911Z,-64
2023-05-15T00:07:41.206Z,-64
2023-05-15T00:12:42.435Z,-64
2023-05-15T00:17:43.679Z,-64
2023-05-15T00:22:44.880Z,-64
2023-05-15T00:27:46.258Z,-64
2023-05-15T00:32:47.466Z,-64
2023-05-15T00:37:48.662Z,-64
2023-05-15T00:42:49.864Z,-64
2023-05-15T00:47:51.088Z,-64
2023-05-15T00:52:52.249Z,-64
2023-05-15T00:57:53.407Z,-64
2023-05-15T01:02:54.662Z,-64
2023-05-15T01:07:55.947Z,-64
2023-05-15T01:12:57.112Z,-64
2023-05-15T01:17:58.347Z,-64
2023-05-15T01:23:00.061Z,-65
2023-05-15T01:28:01.290Z,-64
2023-05-15T01:33:02.473Z,-64
2023-05-15T01:38:03.698Z,-63
2023-05-15T01:43:04.895Z,-64
2023-05-15T01:48:06.053Z,-64
2023-05-15T01:53:07.286Z,-64
2023-05-15T01:58:08.512Z,-64
2023-05-15T02:03:09.894Z,-64
2023-05-15T02:08:11.149Z,-64
2023-05-15T02:13:12.363Z,-64
2023-05-15T02:18:13.596Z,-64
2023-05-15T02:23:14.762Z,-64
2023-05-15T02:28:15.916Z,-64
2023-05-15T02:33:17.225Z,-64
2023-05-15T02:38:18.433Z,-64
2023-05-15T02:43:20.223Z,-64
2023-05-15T02:48:21.396Z,-64
2023-05-15T02:53:22.920Z,-64
2023-05-15T02:58:24.152Z,-64
2023-05-15T03:03:25.327Z,-64
2023-05-15T03:08:26.512Z,-64
2023-05-15T03:13:27.695Z,-64
2023-05-15T03:18:28.979Z,-64
2023-05-15T03:23:31.935Z,-64
2023-05-15T03:28:33.131Z,-64
2023-05-15T03:33:34.330Z,-63
2023-05-15T03:38:35.523Z,-64
2023-05-15T03:43:36.698Z,-64
2023-05-15T03:48:37.927Z,-64
2023-05-15T03:53:39.119Z,-64
2023-05-15T03:58:40.407Z,-63
2023-05-15T04:03:41.616Z,-63
2023-05-15T04:08:42.817Z,-64
2023-05-15T04:13:44.011Z,-64
2023-05-15T04:18:45.234Z,-64
2023-05-15T04:23:46.434Z,-63
2023-05-15T04:29:00.191Z,-64
2023-05-15T04:34:05.039Z,-64
2023-05-15T04:39:06.975Z,-64
2023-05-15T04:44:08.676Z,-64
2023-05-15T04:49:09.894Z,-63
2023-05-15T04:54:11.128Z,-64
2023-05-15T04:59:13.335Z,-64
2023-05-15T05:04:14.750Z,-64
2023-05-15T05:09:16.171Z,-64
2023-05-15T05:14:17.410Z,-64
2023-05-15T05:19:18.624Z,-64
2023-05-15T05:24:19.856Z,-64
2023-05-15T05:29:21.217Z,-64
2023-05-15T05:34:22.399Z,-64
2023-05-15T05:39:23.638Z,-64
2023-05-15T05:44:25.762Z,-64
2023-05-15T05:49:26.985Z,-64
2023-05-15T05:54:28.155Z,-68
2023-05-15T05:59:29.755Z,-65
2023-05-15T06:04:30.939Z,-66
2023-05-15T06:09:32.620Z,-64
2023-05-15T06:14:33.872Z,-65
2023-05-15T06:19:35.192Z,-65
2023-05-15T06:24:36.393Z,-64
2023-05-15T06:29:37.752Z,-69
2023-05-15T06:34:38.931Z,-63
2023-05-15T06:39:40.237Z,-66
2023-05-15T06:44:41.487Z,-63
2023-05-15T06:49:42.698Z,-72
2023-05-15T06:54:43.954Z,-67
2023-05-15T06:59:45.162Z,-64
2023-05-15T07:04:46.487Z,-63
2023-05-15T07:09:50.161Z,-65
2023-05-15T07:14:51.309Z,-67
2023-05-15T07:19:52.591Z,-63
2023-05-15T07:24:53.790Z,-68
2023-05-15T07:29:54.988Z,-67
2023-05-15T07:34:56.233Z,-68
2023-05-15T07:39:57.499Z,-67
2023-05-15T07:44:58.717Z,-67
2023-05-15T07:50:00.001Z,-68
2023-05-15T07:55:01.295Z,-64
2023-05-15T08:00:07.189Z,-63
2023-05-15T08:05:08.341Z,-67
2023-05-15T08:10:09.514Z,-68
2023-05-15T08:15:10.693Z,-67
2023-05-15T08:20:12.020Z,-68
2023-05-15T08:25:13.255Z,-63
2023-05-15T08:30:14.424Z,-68
2023-05-15T08:35:15.619Z,-68
2023-05-15T08:40:17.022Z,-64
2023-05-15T08:45:20.323Z,-65
2023-05-15T08:50:21.593Z,-67
2023-05-15T08:55:23.935Z,-66
2023-05-15T09:00:26.636Z,-64
2023-05-15T09:05:27.914Z,-65
2023-05-15T09:10:29.226Z,-64
2023-05-15T09:15:30.589Z,-63
2023-05-15T09:20:31.855Z,-67
2023-05-15T09:25:33.462Z,-66
2023-05-15T09:30:34.802Z,-66
2023-05-15T09:35:36.105Z,-64
2023-05-15T09:40:37.344Z,-65
2023-05-15T09:45:38.571Z,-64
2023-05-15T09:50:39.856Z,-65
2023-05-15T09:55:41.053Z,-65
2023-05-15T10:00:47.716Z,-64
2023-05-15T10:05:50.721Z,-63
2023-05-15T10:10:53.854Z,-68
2023-05-15T10:15:55.044Z,-67
2023-05-15T10:20:58.003Z,-63
2023-05-15T10:25:59.259Z,-68
2023-05-15T10:31:01.345Z,-65
2023-05-15T10:36:02.651Z,-67
2023-05-15T10:41:16.135Z,-65
2023-05-15T10:46:18.727Z,-66
2023-05-15T10:51:19.991Z,-67
2023-05-15T10:56:21.403Z,-66
2023-05-15T11:01:22.623Z,-65
2023-05-15T11:06:23.836Z,-64
2023-05-15T11:11:25.043Z,-65
2023-05-15T11:16:26.397Z,-69
2023-05-15T11:21:28.018Z,-66
2023-05-15T11:26:29.234Z,-69
2023-05-15T11:31:31.008Z,-67
2023-05-15T11:36:35.171Z,-66
2023-05-15T11:41:37.477Z,-66
2023-05-15T11:46:38.707Z,-64
2023-05-15T11:51:43.100Z,-68
2023-05-15T11:56:44.558Z,-63
2023-05-15T12:01:47.697Z,-67
2023-05-15T12:06:49.515Z,-64
2023-05-15T12:11:50.815Z,-66
2023-05-15T12:16:53.374Z,-66
2023-05-15T12:21:54.655Z,-67
2023-05-15T12:26:57.472Z,-70
2023-05-15T12:31:58.970Z,-67
2023-05-15T12:37:00.341Z,-66
2023-05-15T12:42:01.524Z,-66
2023-05-15T12:47:02.807Z,-67
2023-05-15T12:52:04.054Z,-68
2023-05-15T12:57:05.238Z,-70
2023-05-15T13:02:06.423Z,-69
2023-05-15T13:07:08.032Z,-66
2023-05-15T13:12:09.228Z,-69
2023-05-15T13:17:10.476Z,-68
2023-05-15T13:22:11.884Z,-71
2023-05-15T13:27:13.188Z,-67
2023-05-15T13:32:14.455Z,-68
2023-05-15T13:37:15.736Z,-69
2023-05-15T13:42:17.002Z,-68
2023-05-15T13:47:18.259Z,-66
2023-05-15T13:52:19.638Z,-69
2023-05-15T13:57:20.917Z,-65
2023-05-15T14:02:23.485Z,-70
2023-05-15T14:07:24.668Z,-70
2023-05-15T14:12:25.971Z,-71
2023-05-15T14:17:28.012Z,-71
2023-05-15T14:22:29.254Z,-67
2023-05-15T14:27:30.509Z,-70
2023-05-15T14:32:31.721Z,-70
2023-05-15T14:37:32.920Z,-67
2023-05-15T14:42:34.204Z,-67
2023-05-15T14:47:35.575Z,-69
2023-05-15T14:52:36.812Z,-69
2023-05-15T14:57:38.074Z,-68
2023-05-15T15:02:39.431Z,-69
2023-05-15T15:07:41.004Z,-66
2023-05-15T15:12:42.167Z,-66
2023-05-15T15:17:43.638Z,-69
2023-05-15T15:22:44.919Z,-69
2023-05-15T15:27:46.325Z,-68
2023-05-15T15:32:47.622Z,-70
2023-05-15T15:37:48.882Z,-70
2023-05-15T15:42:50.069Z,-70
2023-05-15T15:47:51.469Z,-72
2023-05-15T15:52:52.983Z,-71
2023-05-15T15:57:54.245Z,-70
2023-05-15T16:02:55.527Z,-63
2023-05-15T16:07:56.838Z,-68
2023-05-15T16:12:58.053Z,-70
2023-05-15T16:17:59.403Z,-70
2023-05-15T16:23:00.929Z,-69
2023-05-15T16:28:02.178Z,-69
2023-05-15T16:33:03.428Z,-68
2023-05-15T16:38:04.746Z,-67
2023-05-15T16:43:06.116Z,-70
2023-05-15T16:48:07.495Z,-68
2023-05-15T16:53:09.022Z,-67
2023-05-15T16:58:10.481Z,-69
2023-05-15T17:03:12.867Z,-69
2023-05-15T17:08:14.161Z,-69
2023-05-15T17:13:15.772Z,-67
2023-05-15T17:18:16.999Z,-70
2023-05-15T17:23:18.133Z,-66
2023-05-15T17:28:19.329Z,-66
2023-05-15T17:33:20.485Z,-66
2023-05-15T17:38:21.646Z,-66
2023-05-15T17:43:22.940Z,-68
2023-05-15T17:48:24.166Z,-66
2023-05-15T17:53:25.418Z,-66
2023-05-15T17:58:26.838Z,-67
2023-05-15T18:03:28.201Z,-67
2023-05-15T18:08:30.682Z,-68
2023-05-15T18:13:31.955Z,-65
2023-05-15T18:18:33.176Z,-68
2023-05-15T18:23:34.423Z,-68
2023-05-15T18:28:35.596Z,-68
2023-05-15T18:33:36.932Z,-65
2023-05-15T18:38:38.117Z,-65
2023-05-15T18:43:39.285Z,-64
2023-05-15T18:48:40.479Z,-67
2023-05-15T18:53:41.673Z,-65
2023-05-15T18:58:42.884Z,-63
2023-05-15T19:03:44.163Z,-66
2023-05-15T19:08:45.369Z,-67
2023-05-15T19:13:46.628Z,-66
2023-05-15T19:18:47.798Z,-65
2023-05-15T19:23:49.009Z,-64
2023-05-15T19:28:50.197Z,-64
2023-05-15T19:33:51.330Z,-67
2023-05-15T19:38:52.659Z,-65
2023-05-15T19:43:53.830Z,-65
2023-05-15T19:48:55.077Z,-67
2023-05-15T19:53:56.692Z,-68
2023-05-15T19:58:59.650Z,-67
2023-05-15T20:04:00.873Z,-64
2023-05-15T20:09:02.151Z,-67
2023-05-15T20:14:03.393Z,-64
2023-05-15T20:19:04.978Z,-65
2023-05-15T20:24:06.894Z,-64
2023-05-15T20:29:08.184Z,-65
2023-05-15T20:34:09.778Z,-66
2023-05-15T20:39:11.450Z,-63
2023-05-15T20:44:12.641Z,-63
2023-05-15T20:49:14.467Z,-63
2023-05-15T20:54:16.087Z,-63
2023-05-15T20:59:17.297Z,-63
2023-05-15T21:04:18.629Z,-63
2023-05-15T21:09:20.008Z,-63
2023-05-15T21:14:21.149Z,-63
2023-05-15T21:19:22.439Z,-63
2023-05-15T21:24:23.661Z,-63
2023-05-15T21:29:24.859Z,-63
2023-05-15T21:34:26.177Z,-64
2023-05-15T21:39:27.369Z,-64
2023-05-15T21:44:28.788Z,-63
2023-05-15T21:49:29.964Z,-63
2023-05-15T21:54:31.162Z,-63
2023-05-15T21:59:32.369Z,-63
2023-05-15T22:04:33.586Z,-63
2023-05-15T22:09:34.976Z,-63
2023-05-15T22:14:37.745Z,-63
2023-05-15T22:19:45.784Z,-63
2023-05-15T22:24:47.097Z,-64
2023-05-15T22:29:48.302Z,-63
2023-05-15T22:34:49.500Z,-63
2023-05-15T22:39:50.741Z,-63
2023-05-15T22:44:51.993Z,-63
2023-05-15T22:49:53.154Z,-63
2023-05-15T22:54:54.425Z,-63
2023-05-15T22:59:55.610Z,-63
2023-05-15T23:04:56.839Z,-64
2023-05-15T23:09:58.036Z,-63
2023-05-15T23:14:59.224Z,-63
2023-05-15T23:20:00.745Z,-63
2023-05-15T23:25:01.973Z,-63
2023-05-15T23:30:03.272Z,-63
2023-05-15T23:35:04.437Z,-63
2023-05-15T23:40:05.988Z,-63
2023-05-15T23:45:07.250Z,-64
2023-05-15T23:50:08.585Z,-64
2023-05-15T23:55:09.792Z,-64
